This is the latest recevied weather packets stored in our database for station/object DF9PM-13. If no packets are shown the sender has not sent any weather packets the latest 10 day(s).
| Time | Temp. | Humidity | Pressure | Rain* | Wind** | Luminosity | Snow |
|---|---|---|---|---|---|---|---|
| 1777241882 | 10.56° C | 55% | 1023.1 hPa | - | - | - | - |
| 1777241582 | 11.11° C | 55% | 1023 hPa | - | - | - | - |
| 1777241282 | 11.11° C | 55% | 1022.9 hPa | - | - | - | - |
| 1777240982 | 10.56° C | 57% | 1023 hPa | - | - | - | - |
| 1777240682 | 11.11° C | 54% | 1023 hPa | - | - | - | - |
| 1777240382 | 11.11° C | 53% | 1023.1 hPa | - | - | - | - |
| 1777240082 | 11.67° C | 50% | 1023 hPa | - | - | - | - |
| 1777239782 | 11.67° C | 48% | 1023 hPa | - | - | - | - |
| 1777239482 | 11.67° C | 48% | 1022.9 hPa | - | - | - | - |
| 1777239182 | 11.67° C | 47% | 1022.9 hPa | - | - | - | - |
| 1777238882 | 12.22° C | 45% | 1022.9 hPa | - | - | - | - |
| 1777238582 | 12.22° C | 45% | 1022.9 hPa | - | - | - | - |
| 1777238282 | 12.22° C | 44% | 1022.9 hPa | - | - | - | - |
| 1777237982 | 12.22° C | 43% | 1022.9 hPa | - | - | - | - |
| 1777237681 | 12.78° C | 43% | 1022.8 hPa | - | - | - | - |
| 1777237381 | 12.78° C | 42% | 1022.8 hPa | - | - | - | - |
| 1777237082 | 12.78° C | 43% | 1022.8 hPa | - | - | - | - |
| 1777236781 | 13.33° C | 40% | 1022.8 hPa | - | - | - | - |
| 1777236481 | 13.33° C | 40% | 1022.9 hPa | - | - | - | - |
| 1777236181 | 13.33° C | 40% | 1022.9 hPa | - | - | - | - |
| 1777235881 | 13.89° C | 38% | 1022.9 hPa | - | - | - | - |
| 1777235581 | 13.89° C | 37% | 1022.8 hPa | - | - | - | - |
| 1777235281 | 13.89° C | 38% | 1022.8 hPa | - | - | - | - |
| 1777234981 | 14.44° C | 38% | 1022.8 hPa | - | - | - | - |
| 1777234681 | 14.44° C | 37% | 1022.7 hPa | - | - | - | - |
* Rain since midnight (hover to see other rain measurements)
** Current wind speed in m/s (hover to see current wind gust speed)